Grand Forks, ND (58201)

2:53 PM CDT on July 23, 2016 (GMT -0500)
APRSWXNET | | Change Station

Elev 846 ft 47.89 °N, 97.16 °W | Updated 21 minutes ago

Mostly Cloudy
Mostly Cloudy
69 °F
Feels Like 69 °F
N
9
Wind Variable Wind from East
Gusts 0.0 mph

Today
High -- | Low -- °F
--% Chance of Precip.
Yesterday
High -- | Low -- °F
Precip. -- in
Pressure 29.70 in
Visibility 10.0 miles
Clouds Few 3900 ft
Scattered Clouds 6500 ft
Mostly Cloudy 11000 ft
Dew Point 68 °F
Humidity 98%
Rainfall in
Snow Depth Not available.
5:54 AM 9:14 PM
Waning Gibbous, 83% visible
SPECI KGFK 231904Z 08014KT 10SM FEW039 SCT065 BKN110 21/19 A2970 RMK AO2 TSE04 OCNL LTGIC DSNT NE CB DSNT NE T02060194
Pressure 29.70 in
Visibility 10.0 miles
Clouds Few 3900 ft
Scattered Clouds 6500 ft
Mostly Cloudy 11000 ft
Dew Point 68 °F
Humidity 98%
Rainfall in
Snow Depth Not available.
5:54 AM 9:14 PM
Waning Gibbous, 83% visible
SPECI KGFK 231904Z 08014KT 10SM FEW039 SCT065 BKN110 21/19 A2970 RMK AO2 TSE04 OCNL LTGIC DSNT NE CB DSNT NE T02060194

10-Day Weather Forecast

Almanac

Astronomy

Jul. 23, 2016 Rise Set
Actual Time
Civil Twilight
Nautical Twilight
Astronomical Twilight
Moon
Length of Visible Light
Length of Day
Tomorrow will be .
, % of the Moon is Illuminated

Today's Extremes

State Highs State Lows

Community

WunderPhotos

Upload Photos

1,926,909 photos uploaded!

WunderBlog® & News

Nearby

Air Quality

  Air Quality AQ Index Pollutant
Not available.

Snow Depth

Station Depth Elevation

Earthquake Activity

City Distance Mag. Time & Date
Minimum magnitude displayed is 2.5.

Coastal Water Temperatures

Place Temperature

Stations

Nearby Weather Stations

Station Location Temp. Windchill Dew Point Humidity Wind Precip. Elev Updated Type
                   

Watches & Warnings

There are currently no watches in effect.